Station Historical Data
Daily Summary for February 21, 2012 Units:  Both    English   Metric
« Previous Day
Next Day »
Daily Weekly Monthly Yearly Custom
  High: Low: Average:
Temperature: 62.1 °F /  16.7 °C 45.5 °F /  7.5 °C 53 °F /  11.7 °C
Dew Point: 45.8 °F /  7.7 °C 25.2 °F /  -3.8 °C 37.2 °F /  2.9 °C
Humidity: 83% 25% 58%
Wind Speed: 20.0mph /  32.2km/h - 8.9mph /  14.3km/h
Wind Gust: 24.0mph /  38.6km/h - -
Wind- - SSW
Pressure: 30.12 in /  1019.9 hPa 29.95 in /  1014.1 hPa -
Precipitation: 0.01 in /  0.25 mm    
Historical Graphs
 
 
Tabular Data for February 21, 2012
Time Temperature Dew Point Pressure Wind Wind Speed Wind Gust Humidity Rainfall Rate (Hourly) Conditions
00:00 45.5 °F /  7.5 °C 36.3 °F /  2.4 °C 30.12in /  1019.9hPa SSW 2.0mph /  3.2km/h 7.0mph /  11.3km/h 70% 0.00in /  0mm
00:01 45.5 °F /  7.5 °C 36.3 °F /  2.4 °C 30.12in /  1019.9hPa SSE 4.0mph /  6.4km/h 7.0mph /  11.3km/h 70% 0.00in /  0mm
00:06 45.5 °F /  7.5 °C 36.7 °F /  2.6 °C 30.11in /  1019.5hPa SSE 7.0mph /  11.3km/h 10.0mph /  16.1km/h 71% 0.00in /  0mm
00:11 45.8 °F /  7.7 °C 37.0 °F /  2.8 °C 30.12in /  1019.9hPa SSW 6.0mph /  9.7km/h 8.0mph /  12.9km/h 71% 0.00in /  0mm
00:16 45.9 °F /  7.7 °C 37.0 °F /  2.8 °C 30.12in /  1019.9hPa SSE 10.0mph /  16.1km/h 10.0mph /  16.1km/h 71% 0.00in /  0mm
00:21 45.8 °F /  7.7 °C 37.3 °F /  2.9 °C 30.11in /  1019.5hPa SE 11.0mph /  17.7km/h 11.0mph /  17.7km/h 72% 0.00in /  0mm
00:26 45.9 °F /  7.7 °C 37.4 °F /  3 °C 30.11in /  1019.5hPa SSE 5.0mph /  8km/h 12.0mph /  19.3km/h 72% 0.00in /  0mm
00:31 45.9 °F /  7.7 °C 37.4 °F /  3 °C 30.10in /  1019.2hPa South 9.0mph /  14.5km/h 12.0mph /  19.3km/h 72% 0.00in /  0mm
00:36 45.9 °F /  7.7 °C 37.4 °F /  3 °C 30.10in /  1019.2hPa SE 7.0mph /  11.3km/h 13.0mph /  20.9km/h 72% 0.00in /  0mm
00:41 45.9 °F /  7.7 °C 37.4 °F /  3 °C 30.11in /  1019.5hPa SSE 5.0mph /  8km/h 10.0mph /  16.1km/h 72% 0.00in /  0mm
00:46 45.9 °F /  7.7 °C 37.8 °F /  3.2 °C 30.10in /  1019.2hPa SSE 10.0mph /  16.1km/h 13.0mph /  20.9km/h 73% 0.00in /  0mm
00:51 46.0 °F /  7.8 °C 37.8 °F /  3.2 °C 30.08in /  1018.5hPa SSE 8.0mph /  12.9km/h 15.0mph /  24.1km/h 73% 0.00in /  0mm
00:56 46.5 °F /  8.1 °C 38.0 °F /  3.3 °C 30.07in /  1018.2hPa SSE 11.0mph /  17.7km/h 16.0mph /  25.7km/h 72% 0.00in /  0mm
01:01 46.9 °F /  8.3 °C 38.4 °F /  3.6 °C 30.06in /  1017.8hPa SSE 19.0mph /  30.6km/h 19.0mph /  30.6km/h 72% 0.00in /  0mm
01:06 47.5 °F /  8.6 °C 38.9 °F /  3.8 °C 30.06in /  1017.8hPa ESE 13.0mph /  20.9km/h 23.0mph /  37km/h 72% 0.00in /  0mm
01:11 47.7 °F /  8.7 °C 38.8 °F /  3.8 °C 30.07in /  1018.2hPa SSE 13.0mph /  20.9km/h 16.0mph /  25.7km/h 71% 0.00in /  0mm
01:16 47.6 °F /  8.7 °C 39.0 °F /  3.9 °C 30.09in /  1018.8hPa SE 9.0mph /  14.5km/h 18.0mph /  29km/h 72% 0.00in /  0mm
01:21 47.6 °F /  8.7 °C 39.0 °F /  3.9 °C 30.10in /  1019.2hPa SSE 6.0mph /  9.7km/h 11.0mph /  17.7km/h 72% 0.00in /  0mm
01:26 47.7 °F /  8.7 °C 39.1 °F /  3.9 °C 30.09in /  1018.8hPa SSE 12.0mph /  19.3km/h 13.0mph /  20.9km/h 72% 0.00in /  0mm
01:31 47.8 °F /  8.8 °C 39.6 °F /  4.2 °C 30.10in /  1019.2hPa SSE 10.0mph /  16.1km/h 14.0mph /  22.5km/h 73% 0.00in /  0mm
01:36 48.0 °F /  8.9 °C 39.4 °F /  4.1 °C 30.10in /  1019.2hPa SSW 14.0mph /  22.5km/h 19.0mph /  30.6km/h 72% 0.00in /  0mm
01:41 48.1 °F /  8.9 °C 39.9 °F /  4.4 °C 30.10in /  1019.2hPa SSE 10.0mph /  16.1km/h 15.0mph /  24.1km/h 73% 0.00in /  0mm
01:46 48.1 °F /  8.9 °C 39.9 °F /  4.4 °C 30.11in /  1019.5hPa SSE 10.0mph /  16.1km/h 14.0mph /  22.5km/h 73% 0.00in /  0mm
01:51 48.1 °F /  8.9 °C 39.9 °F /  4.4 °C 30.10in /  1019.2hPa SSW 13.0mph /  20.9km/h 17.0mph /  27.4km/h 73% 0.00in /  0mm
01:56 48.3 °F /  9.1 °C 40.1 °F /  4.5 °C 30.11in /  1019.5hPa South 4.0mph /  6.4km/h 13.0mph /  20.9km/h 73% 0.00in /  0mm
02:01 48.3 °F /  9.1 °C 40.1 °F /  4.5 °C 30.12in /  1019.9hPa South 7.0mph /  11.3km/h 15.0mph /  24.1km/h 73% 0.00in /  0mm
02:06 48.4 °F /  9.1 °C 40.2 °F /  4.6 °C 30.12in /  1019.9hPa South 9.0mph /  14.5km/h 12.0mph /  19.3km/h 73% 0.00in /  0mm
02:11 48.2 °F /  9 °C 40.0 °F /  4.4 °C 30.11in /  1019.5hPa SSE 10.0mph /  16.1km/h 15.0mph /  24.1km/h 73% 0.00in /  0mm
02:16 48.1 °F /  8.9 °C 40.2 °F /  4.6 °C 30.11in /  1019.5hPa SSE 6.0mph /  9.7km/h 13.0mph /  20.9km/h 74% 0.00in /  0mm
02:21 48.2 °F /  9 °C 40.3 °F /  4.6 °C 30.10in /  1019.2hPa SE 12.0mph /  19.3km/h 17.0mph /  27.4km/h 74% 0.00in /  0mm
02:26 48.2 °F /  9 °C 40.3 °F /  4.6 °C 30.10in /  1019.2hPa SSE 11.0mph /  17.7km/h 14.0mph /  22.5km/h 74% 0.00in /  0mm
02:31 48.4 °F /  9.1 °C 40.5 °F /  4.7 °C 30.10in /  1019.2hPa SSE 11.0mph /  17.7km/h 18.0mph /  29km/h 74% 0.00in /  0mm
02:37 48.5 °F /  9.2 °C 40.2 °F /  4.6 °C 30.09in /  1018.8hPa SE 9.0mph /  14.5km/h 16.0mph /  25.7km/h 73% 0.00in /  0mm
02:42 48.4 °F /  9.1 °C 40.2 °F /  4.6 °C 30.08in /  1018.5hPa SSE 11.0mph /  17.7km/h 15.0mph /  24.1km/h 73% 0.00in /  0mm
02:47 48.6 °F /  9.2 °C 40.3 °F /  4.6 °C 30.08in /  1018.5hPa SSE 10.0mph /  16.1km/h 15.0mph /  24.1km/h 73% 0.00in /  0mm
02:52 48.7 °F /  9.3 °C 40.5 °F /  4.7 °C 30.08in /  1018.5hPa South 13.0mph /  20.9km/h 14.0mph /  22.5km/h 73% 0.00in /  0mm
02:57 48.7 °F /  9.3 °C 40.5 °F /  4.7 °C 30.08in /  1018.5hPa SSE 15.0mph /  24.1km/h 15.0mph /  24.1km/h 73% 0.00in /  0mm
03:02 48.7 °F /  9.3 °C 40.8 °F /  4.9 °C 30.07in /  1018.2hPa SSE 9.0mph /  14.5km/h 16.0mph /  25.7km/h 74% 0.00in /  0mm
03:07 48.9 °F /  9.4 °C 41.0 °F /  5 °C 30.06in /  1017.8hPa ESE 13.0mph /  20.9km/h 15.0mph /  24.1km/h 74% 0.00in /  0mm
03:12 49.0 °F /  9.4 °C 40.7 °F /  4.8 °C 30.07in /  1018.2hPa SSE 14.0mph /  22.5km/h 18.0mph /  29km/h 73% 0.00in /  0mm
03:17 49.1 °F /  9.5 °C 40.8 °F /  4.9 °C 30.07in /  1018.2hPa SSE 13.0mph /  20.9km/h 15.0mph /  24.1km/h 73% 0.00in /  0mm
03:22 49.1 °F /  9.5 °C 40.8 °F /  4.9 °C 30.07in /  1018.2hPa SE 14.0mph /  22.5km/h 15.0mph /  24.1km/h 73% 0.00in /  0mm
03:27 49.1 °F /  9.5 °C 40.8 °F /  4.9 °C 30.07in /  1018.2hPa South 12.0mph /  19.3km/h 15.0mph /  24.1km/h 73% 0.00in /  0mm
03:32 49.2 °F /  9.6 °C 40.9 °F /  4.9 °C 30.06in /  1017.8hPa SE 11.0mph /  17.7km/h 18.0mph /  29km/h 73% 0.00in /  0mm
03:37 49.2 °F /  9.6 °C 40.9 °F /  4.9 °C 30.06in /  1017.8hPa SE 17.0mph /  27.4km/h 19.0mph /  30.6km/h 73% 0.00in /  0mm
03:42 49.1 °F /  9.5 °C 40.8 °F /  4.9 °C 30.06in /  1017.8hPa SE 12.0mph /  19.3km/h 16.0mph /  25.7km/h 73% 0.00in /  0mm
03:47 49.1 °F /  9.5 °C 40.8 °F /  4.9 °C 30.06in /  1017.8hPa SSE 12.0mph /  19.3km/h 18.0mph /  29km/h 73% 0.00in /  0mm
03:52 48.9 °F /  9.4 °C 40.6 °F /  4.8 °C 30.06in /  1017.8hPa SSE 13.0mph /  20.9km/h 18.0mph /  29km/h 73% 0.00in /  0mm
03:57 48.8 °F /  9.3 °C 40.9 °F /  4.9 °C 30.06in /  1017.8hPa South 8.0mph /  12.9km/h 16.0mph /  25.7km/h 74% 0.00in /  0mm
04:02 48.8 °F /  9.3 °C 40.9 °F /  4.9 °C 30.06in /  1017.8hPa ESE 15.0mph /  24.1km/h 17.0mph /  27.4km/h 74% 0.00in /  0mm
04:07 49.0 °F /  9.4 °C 40.7 °F /  4.8 °C 30.06in /  1017.8hPa South 13.0mph /  20.9km/h 19.0mph /  30.6km/h 73% 0.00in /  0mm
04:12 49.2 °F /  9.6 °C 40.9 °F /  4.9 °C 30.06in /  1017.8hPa South 15.0mph /  24.1km/h 18.0mph /  29km/h 73% 0.00in /  0mm
04:17 49.2 °F /  9.6 °C 40.9 °F /  4.9 °C 30.05in /  1017.5hPa SSE 16.0mph /  25.7km/h 19.0mph /  30.6km/h 73% 0.00in /  0mm
04:22 49.3 °F /  9.6 °C 41.0 °F /  5 °C 30.05in /  1017.5hPa South 10.0mph /  16.1km/h 22.0mph /  35.4km/h 73% 0.00in /  0mm
04:27 49.3 °F /  9.6 °C 41.0 °F /  5 °C 30.05in /  1017.5hPa SSE 12.0mph /  19.3km/h 18.0mph /  29km/h 73% 0.00in /  0mm
04:32 49.3 °F /  9.6 °C 41.0 °F /  5 °C 30.04in /  1017.2hPa SSE 12.0mph /  19.3km/h 24.0mph /  38.6km/h 73% 0.00in /  0mm
04:37 49.1 °F /  9.5 °C 41.5 °F /  5.3 °C 30.04in /  1017.2hPa SSE 14.0mph /  22.5km/h 20.0mph /  32.2km/h 75% 0.00in /  0mm
04:42 48.6 °F /  9.2 °C 41.7 °F /  5.4 °C 30.04in /  1017.2hPa SSE 13.0mph /  20.9km/h 24.0mph /  38.6km/h 77% 0.00in /  0mm
04:47 48.5 °F /  9.2 °C 42.0 °F /  5.6 °C 30.04in /  1017.2hPa SE 10.0mph /  16.1km/h 21.0mph /  33.8km/h 78% 0.00in /  0mm
04:53 48.4 °F /  9.1 °C 41.9 °F /  5.5 °C 30.04in /  1017.2hPa SSW 8.0mph /  12.9km/h 14.0mph /  22.5km/h 78% 0.00in /  0mm
04:58 48.4 °F /  9.1 °C 41.9 °F /  5.5 °C 30.05in /  1017.5hPa SSW 13.0mph /  20.9km/h 14.0mph /  22.5km/h 78% 0.00in /  0mm
05:03 48.4 °F /  9.1 °C 41.9 °F /  5.5 °C 30.06in /  1017.8hPa South 11.0mph /  17.7km/h 16.0mph /  25.7km/h 78% 0.00in /  0mm
05:08 47.9 °F /  8.8 °C 42.0 °F /  5.6 °C 30.04in /  1017.2hPa SSE 12.0mph /  19.3km/h 16.0mph /  25.7km/h 80% 0.00in /  0mm
05:13 47.6 °F /  8.7 °C 42.4 °F /  5.8 °C 30.04in /  1017.2hPa SSE 8.0mph /  12.9km/h 19.0mph /  30.6km/h 82% 0.00in /  0mm
05:18 47.2 °F /  8.4 °C 42.3 °F /  5.7 °C 30.04in /  1017.2hPa SSE 14.0mph /  22.5km/h 18.0mph /  29km/h 83% 0.00in /  0mm
05:23 47.2 °F /  8.4 °C 42.3 °F /  5.7 °C 30.03in /  1016.8hPa SSE 7.0mph /  11.3km/h 18.0mph /  29km/h 83% 0.00in /  0mm
05:28 47.3 °F /  8.5 °C 42.4 °F /  5.8 °C 30.03in /  1016.8hPa SSE 7.0mph /  11.3km/h 15.0mph /  24.1km/h 83% 0.00in /  0mm
05:33 47.2 °F /  8.4 °C 42.0 °F /  5.6 °C 30.03in /  1016.8hPa SSE 13.0mph /  20.9km/h 17.0mph /  27.4km/h 82% 0.00in /  0mm
05:38 47.2 °F /  8.4 °C 42.0 °F /  5.6 °C 30.03in /  1016.8hPa SSE 12.0mph /  19.3km/h 14.0mph /  22.5km/h 82% 0.00in /  0mm
05:43 47.2 °F /  8.4 °C 42.0 °F /  5.6 °C 30.04in /  1017.2hPa SSW 5.0mph /  8km/h 16.0mph /  25.7km/h 82% 0.00in /  0mm
05:48 47.3 °F /  8.5 °C 42.1 °F /  5.6 °C 30.04in /  1017.2hPa South 5.0mph /  8km/h 11.0mph /  17.7km/h 82% 0.00in /  0mm
05:53 47.2 °F /  8.4 °C 42.0 °F /  5.6 °C 30.04in /  1017.2hPa South 6.0mph /  9.7km/h 12.0mph /  19.3km/h 82% 0.00in /  0mm
05:58 47.3 °F /  8.5 °C 41.8 °F /  5.4 °C 30.05in /  1017.5hPa South 8.0mph /  12.9km/h 13.0mph /  20.9km/h 81% 0.00in /  0mm
06:03 47.3 °F /  8.5 °C 41.5 °F /  5.3 °C 30.05in /  1017.5hPa SSW 9.0mph /  14.5km/h 15.0mph /  24.1km/h 80% 0.00in /  0mm
06:08 47.4 °F /  8.6 °C 41.5 °F /  5.3 °C 30.05in /  1017.5hPa SSE 5.0mph /  8km/h 15.0mph /  24.1km/h 80% 0.00in /  0mm
06:13 47.4 °F /  8.6 °C 41.5 °F /  5.3 °C 30.05in /  1017.5hPa SSW 7.0mph /  11.3km/h 15.0mph /  24.1km/h 80% 0.00in /  0mm
06:18 47.3 °F /  8.5 °C 41.5 °F /  5.3 °C 30.05in /  1017.5hPa SSE 6.0mph /  9.7km/h 11.0mph /  17.7km/h 80% 0.00in /  0mm
06:23 47.4 °F /  8.6 °C 41.5 °F /  5.3 °C 30.05in /  1017.5hPa South 8.0mph /  12.9km/h 12.0mph /  19.3km/h 80% 0.00in /  0mm
06:28 47.4 °F /  8.6 °C 41.5 °F /  5.3 °C 30.05in /  1017.5hPa SSE 13.0mph /  20.9km/h 15.0mph /  24.1km/h 80% 0.00in /  0mm
06:33 47.4 °F /  8.6 °C 41.5 °F /  5.3 °C 30.05in /  1017.5hPa South 7.0mph /  11.3km/h 9.0mph /  14.5km/h 80% 0.00in /  0mm
06:38 47.4 °F /  8.6 °C 41.5 °F /  5.3 °C 30.05in /  1017.5hPa South 7.0mph /  11.3km/h 11.0mph /  17.7km/h 80% 0.00in /  0mm
06:43 47.3 °F /  8.5 °C 41.5 °F /  5.3 °C 30.05in /  1017.5hPa SSW 5.0mph /  8km/h 10.0mph /  16.1km/h 80% 0.00in /  0mm
06:48 47.1 °F /  8.4 °C 41.6 °F /  5.3 °C 30.04in /  1017.2hPa SE 14.0mph /  22.5km/h 14.0mph /  22.5km/h 81% 0.00in /  0mm
06:53 47.1 °F /  8.4 °C 41.6 °F /  5.3 °C 30.04in /  1017.2hPa SSE 10.0mph /  16.1km/h 14.0mph /  22.5km/h 81% 0.00in /  0mm
06:58 47.0 °F /  8.3 °C 41.5 °F /  5.3 °C 30.04in /  1017.2hPa SSE 10.0mph /  16.1km/h 11.0mph /  17.7km/h 81% 0.00in /  0mm
07:03 46.9 °F /  8.3 °C 41.7 °F /  5.4 °C 30.04in /  1017.2hPa SE 12.0mph /  19.3km/h 16.0mph /  25.7km/h 82% 0.00in /  0mm
07:08 47.1 °F /  8.4 °C 41.9 °F /  5.5 °C 30.04in /  1017.2hPa SSE 13.0mph /  20.9km/h 14.0mph /  22.5km/h 82% 0.00in /  0mm
07:13 47.3 °F /  8.5 °C 42.1 °F /  5.6 °C 30.03in /  1016.8hPa SSE 9.0mph /  14.5km/h 15.0mph /  24.1km/h 82% 0.00in /  0mm
07:18 47.6 °F /  8.7 °C 42.1 °F /  5.6 °C 30.04in /  1017.2hPa South 11.0mph /  17.7km/h 11.0mph /  17.7km/h 81% 0.00in /  0mm
07:23 47.9 °F /  8.8 °C 42.4 °F /  5.8 °C 30.04in /  1017.2hPa SE 11.0mph /  17.7km/h 17.0mph /  27.4km/h 81% 0.00in /  0mm
07:28 48.2 °F /  9 °C 42.7 °F /  5.9 °C 30.04in /  1017.2hPa SSE 11.0mph /  17.7km/h 13.0mph /  20.9km/h 81% 0.00in /  0mm
07:33 48.5 °F /  9.2 °C 43.0 °F /  6.1 °C 30.05in /  1017.5hPa SSW 10.0mph /  16.1km/h 14.0mph /  22.5km/h 81% 0.00in /  0mm
07:39 48.7 °F /  9.3 °C 43.1 °F /  6.2 °C 30.04in /  1017.2hPa SSW 8.0mph /  12.9km/h 16.0mph /  25.7km/h 81% 0.00in /  0mm
07:44 48.6 °F /  9.2 °C 43.4 °F /  6.3 °C 30.05in /  1017.5hPa SSE 9.0mph /  14.5km/h 16.0mph /  25.7km/h 82% 0.00in /  0mm
07:49 48.8 °F /  9.3 °C 43.6 °F /  6.4 °C 30.05in /  1017.5hPa SSW 9.0mph /  14.5km/h 14.0mph /  22.5km/h 82% 0.00in /  0mm
07:54 49.0 °F /  9.4 °C 43.8 °F /  6.6 °C 30.05in /  1017.5hPa South 11.0mph /  17.7km/h 15.0mph /  24.1km/h 82% 0.00in /  0mm
07:59 49.1 °F /  9.5 °C 43.8 °F /  6.6 °C 30.05in /  1017.5hPa SSW 14.0mph /  22.5km/h 14.0mph /  22.5km/h 82% 0.00in /  0mm
08:04 49.1 °F /  9.5 °C 43.8 °F /  6.6 °C 30.04in /  1017.2hPa South 8.0mph /  12.9km/h 13.0mph /  20.9km/h 82% 0.00in /  0mm
08:09 49.2 °F /  9.6 °C 44.0 °F /  6.7 °C 30.05in /  1017.5hPa SSW 8.0mph /  12.9km/h 18.0mph /  29km/h 82% 0.00in /  0mm
08:14 49.2 °F /  9.6 °C 44.0 °F /  6.7 °C 30.05in /  1017.5hPa South 6.0mph /  9.7km/h 13.0mph /  20.9km/h 82% 0.00in /  0mm
08:19 49.2 °F /  9.6 °C 44.0 °F /  6.7 °C 30.05in /  1017.5hPa South 11.0mph /  17.7km/h 11.0mph /  17.7km/h 82% 0.00in /  0mm
08:24 49.2 °F /  9.6 °C 44.0 °F /  6.7 °C 30.05in /  1017.5hPa SSE 9.0mph /  14.5km/h 15.0mph /  24.1km/h 82% 0.00in /  0mm
08:29 49.1 °F /  9.5 °C 44.2 °F /  6.8 °C 30.05in /  1017.5hPa SSE 9.0mph /  14.5km/h 13.0mph /  20.9km/h 83% 0.00in /  0mm
08:34 49.2 °F /  9.6 °C 44.3 °F /  6.8 °C 30.05in /  1017.5hPa South 7.0mph /  11.3km/h 12.0mph /  19.3km/h 83% 0.00in /  0mm
08:39 49.3 °F /  9.6 °C 44.4 °F /  6.9 °C 30.05in /  1017.5hPa South 11.0mph /  17.7km/h 14.0mph /  22.5km/h 83% 0.00in /  0mm
08:44 49.3 °F /  9.6 °C 44.0 °F /  6.7 °C 30.05in /  1017.5hPa SSW 8.0mph /  12.9km/h 16.0mph /  25.7km/h 82% 0.00in /  0mm
08:49 49.6 °F /  9.8 °C 44.3 °F /  6.8 °C 30.06in /  1017.8hPa SSE 8.0mph /  12.9km/h 14.0mph /  22.5km/h 82% 0.00in /  0mm
08:55 49.9 °F /  9.9 °C 44.6 °F /  7 °C 30.05in /  1017.5hPa SSW 6.0mph /  9.7km/h 13.0mph /  20.9km/h 82% 0.00in /  0mm
09:00 50.3 °F /  10.2 °C 44.7 °F /  7.1 °C 30.06in /  1017.8hPa South 14.0mph /  22.5km/h 14.0mph /  22.5km/h 81% 0.00in /  0mm
09:05 50.5 °F /  10.3 °C 44.9 °F /  7.2 °C 30.06in /  1017.8hPa SSW 8.0mph /  12.9km/h 15.0mph /  24.1km/h 81% 0.00in /  0mm
09:10 50.6 °F /  10.3 °C 45.0 °F /  7.2 °C 30.06in /  1017.8hPa South 5.0mph /  8km/h 11.0mph /  17.7km/h 81% 0.00in /  0mm
09:15 50.9 °F /  10.5 °C 45.3 °F /  7.4 °C 30.06in /  1017.8hPa SSE 8.0mph /  12.9km/h 14.0mph /  22.5km/h 81% 0.00in /  0mm
09:20 51.0 °F /  10.6 °C 45.4 °F /  7.4 °C 30.06in /  1017.8hPa South 6.0mph /  9.7km/h 11.0mph /  17.7km/h 81% 0.00in /  0mm
09:25 51.4 °F /  10.8 °C 45.5 °F /  7.5 °C 30.05in /  1017.5hPa South 9.0mph /  14.5km/h 16.0mph /  25.7km/h 80% 0.00in /  0mm
09:30 51.4 °F /  10.8 °C 45.5 °F /  7.5 °C 30.06in /  1017.8hPa SSE 8.0mph /  12.9km/h 15.0mph /  24.1km/h 80% 0.00in /  0mm
09:35 51.6 °F /  10.9 °C 45.6 °F /  7.6 °C 30.05in /  1017.5hPa SW 7.0mph /  11.3km/h 14.0mph /  22.5km/h 80% 0.00in /  0mm
09:40 51.7 °F /  10.9 °C 45.7 °F /  7.6 °C 30.06in /  1017.8hPa SSW 11.0mph /  17.7km/h 19.0mph /  30.6km/h 80% 0.00in /  0mm
09:45 51.9 °F /  11.1 °C 45.6 °F /  7.6 °C 30.06in /  1017.8hPa SW 12.0mph /  19.3km/h 19.0mph /  30.6km/h 79% 0.00in /  0mm
09:50 51.8 °F /  11 °C 45.2 °F /  7.3 °C 30.06in /  1017.8hPa SW 13.0mph /  20.9km/h 17.0mph /  27.4km/h 78% 0.00in /  0mm
09:55 52.5 °F /  11.4 °C 45.8 °F /  7.7 °C 30.06in /  1017.8hPa SSW 12.0mph /  19.3km/h 15.0mph /  24.1km/h 78% 0.00in /  0mm
10:00 53.0 °F /  11.7 °C 45.7 °F /  7.6 °C 30.06in /  1017.8hPa SSW 15.0mph /  24.1km/h 15.0mph /  24.1km/h 76% 0.00in /  0mm
10:05 53.2 °F /  11.8 °C 45.5 °F /  7.5 °C 30.05in /  1017.5hPa SW 10.0mph /  16.1km/h 22.0mph /  35.4km/h 75% 0.00in /  0mm
10:10 53.0 °F /  11.7 °C 44.2 °F /  6.8 °C 30.06in /  1017.8hPa SW 17.0mph /  27.4km/h 19.0mph /  30.6km/h 72% 0.00in /  0mm
10:15 52.9 °F /  11.6 °C 44.8 °F /  7.1 °C 30.06in /  1017.8hPa WSW 12.0mph /  19.3km/h 18.0mph /  29km/h 74% 0.00in /  0mm
10:20 53.3 °F /  11.8 °C 44.5 °F /  6.9 °C 30.06in /  1017.8hPa SW 8.0mph /  12.9km/h 16.0mph /  25.7km/h 72% 0.00in /  0mm
10:25 53.5 °F /  11.9 °C 44.3 °F /  6.8 °C 30.06in /  1017.8hPa WSW 15.0mph /  24.1km/h 23.0mph /  37km/h 71% 0.00in /  0mm
10:30 53.4 °F /  11.9 °C 44.6 °F /  7 °C 30.06in /  1017.8hPa SSW 14.0mph /  22.5km/h 22.0mph /  35.4km/h 72% 0.00in /  0mm
10:35 53.9 °F /  12.2 °C 44.7 °F /  7.1 °C 30.06in /  1017.8hPa WSW 12.0mph /  19.3km/h 17.0mph /  27.4km/h 71% 0.00in /  0mm
10:36 53.9 °F /  12.2 °C 44.7 °F /  7.1 °C 30.06in /  1017.8hPa WSW 6.0mph /  9.7km/h 17.0mph /  27.4km/h 71% 0.00in /  0mm
10:41 54.6 °F /  12.6 °C 45.4 °F /  7.4 °C 30.06in /  1017.8hPa SSW 11.0mph /  17.7km/h 15.0mph /  24.1km/h 71% 0.00in /  0mm
10:46 54.9 °F /  12.7 °C 45.3 °F /  7.4 °C 30.06in /  1017.8hPa SW 20.0mph /  32.2km/h 24.0mph /  38.6km/h 70% 0.00in /  0mm
10:51 54.9 °F /  12.7 °C 43.4 °F /  6.3 °C 30.06in /  1017.8hPa SW 18.0mph /  29km/h 22.0mph /  35.4km/h 65% 0.00in /  0mm
10:56 54.7 °F /  12.6 °C 42.8 °F /  6 °C 30.06in /  1017.8hPa SSW 15.0mph /  24.1km/h 20.0mph /  32.2km/h 64% 0.00in /  0mm
11:01 54.8 °F /  12.7 °C 43.7 °F /  6.5 °C 30.06in /  1017.8hPa SW 19.0mph /  30.6km/h 20.0mph /  32.2km/h 66% 0.00in /  0mm
11:06 54.7 °F /  12.6 °C 42.4 °F /  5.8 °C 30.06in /  1017.8hPa SW 15.0mph /  24.1km/h 21.0mph /  33.8km/h 63% 0.00in /  0mm
11:11 54.9 °F /  12.7 °C 41.7 °F /  5.4 °C 30.06in /  1017.8hPa SW 6.0mph /  9.7km/h 17.0mph /  27.4km/h 61% 0.00in /  0mm
11:16 55.4 °F /  13 °C 42.2 °F /  5.7 °C 30.06in /  1017.8hPa SSW 16.0mph /  25.7km/h 21.0mph /  33.8km/h 61% 0.00in /  0mm
11:21 56.1 °F /  13.4 °C 43.3 °F /  6.3 °C 30.05in /  1017.5hPa SSE 15.0mph /  24.1km/h 15.0mph /  24.1km/h 62% 0.00in /  0mm
11:26 55.9 °F /  13.3 °C 42.7 °F /  5.9 °C 30.06in /  1017.8hPa WSW 10.0mph /  16.1km/h 20.0mph /  32.2km/h 61% 0.00in /  0mm
11:31 56.1 °F /  13.4 °C 43.3 °F /  6.3 °C 30.05in /  1017.5hPa WSW 11.0mph /  17.7km/h 21.0mph /  33.8km/h 62% 0.00in /  0mm
11:36 56.2 °F /  13.4 °C 42.1 °F /  5.6 °C 30.05in /  1017.5hPa WSW 11.0mph /  17.7km/h 24.0mph /  38.6km/h 59% 0.00in /  0mm
11:41 56.3 °F /  13.5 °C 43.9 °F /  6.6 °C 30.05in /  1017.5hPa South 7.0mph /  11.3km/h 15.0mph /  24.1km/h 63% 0.00in /  0mm
11:46 56.8 °F /  13.8 °C 43.5 °F /  6.4 °C 30.05in /  1017.5hPa SW 6.0mph /  9.7km/h 14.0mph /  22.5km/h 61% 0.00in /  0mm
11:51 57.1 °F /  13.9 °C 43.8 °F /  6.6 °C 30.05in /  1017.5hPa SW 11.0mph /  17.7km/h 14.0mph /  22.5km/h 61% 0.00in /  0mm
11:56 57.3 °F /  14.1 °C 42.7 °F /  5.9 °C 30.05in /  1017.5hPa SW 14.0mph /  22.5km/h 16.0mph /  25.7km/h 58% 0.00in /  0mm
11:57 57.3 °F /  14.1 °C 43.1 °F /  6.2 °C 30.05in /  1017.5hPa SSW 9.0mph /  14.5km/h 16.0mph /  25.7km/h 59% 0.00in /  0mm
12:02 57.4 °F /  14.1 °C 43.6 °F /  6.4 °C 30.05in /  1017.5hPa South 15.0mph /  24.1km/h 18.0mph /  29km/h 60% 0.00in /  0mm
12:07 57.4 °F /  14.1 °C 44.1 °F /  6.7 °C 30.05in /  1017.5hPa SSW 8.0mph /  12.9km/h 15.0mph /  24.1km/h 61% 0.00in /  0mm
12:12 58.4 °F /  14.7 °C 43.7 °F /  6.5 °C 30.05in /  1017.5hPa WSW 12.0mph /  19.3km/h 16.0mph /  25.7km/h 58% 0.00in /  0mm
12:17 58.1 °F /  14.5 °C 41.6 °F /  5.3 °C 30.05in /  1017.5hPa WSW 13.0mph /  20.9km/h 14.0mph /  22.5km/h 54% 0.00in /  0mm
12:22 57.8 °F /  14.3 °C 41.8 °F /  5.4 °C 30.04in /  1017.2hPa SW 14.0mph /  22.5km/h 15.0mph /  24.1km/h 55% 0.00in /  0mm
12:27 57.9 °F /  14.4 °C 40.4 °F /  4.7 °C 30.04in /  1017.2hPa WSW 12.0mph /  19.3km/h 18.0mph /  29km/h 52% 0.00in /  0mm
12:32 57.9 °F /  14.4 °C 40.4 °F /  4.7 °C 30.04in /  1017.2hPa SSW 9.0mph /  14.5km/h 18.0mph /  29km/h 52% 0.00in /  0mm
12:37 57.9 °F /  14.4 °C 40.4 °F /  4.7 °C 30.04in /  1017.2hPa WSW 9.0mph /  14.5km/h 18.0mph /  29km/h 52% 0.00in /  0mm
12:42 58.3 °F /  14.6 °C 40.8 °F /  4.9 °C 30.04in /  1017.2hPa WSW 8.0mph /  12.9km/h 17.0mph /  27.4km/h 52% 0.00in /  0mm
12:47 58.6 °F /  14.8 °C 42.0 °F /  5.6 °C 30.03in /  1016.8hPa WSW 11.0mph /  17.7km/h 14.0mph /  22.5km/h 54% 0.00in /  0mm
12:52 58.7 °F /  14.8 °C 41.6 °F /  5.3 °C 30.03in /  1016.8hPa SW 13.0mph /  20.9km/h 14.0mph /  22.5km/h 53% 0.00in /  0mm
12:57 59.1 °F /  15.1 °C 41.0 °F /  5 °C 30.02in /  1016.5hPa SW 11.0mph /  17.7km/h 16.0mph /  25.7km/h 51% 0.00in /  0mm
13:03 59.3 °F /  15.2 °C 41.2 °F /  5.1 °C 30.01in /  1016.1hPa WSW 17.0mph /  27.4km/h 17.0mph /  27.4km/h 51% 0.00in /  0mm
13:08 59.2 °F /  15.1 °C 41.1 °F /  5.1 °C 30.01in /  1016.1hPa SW 10.0mph /  16.1km/h 16.0mph /  25.7km/h 51% 0.00in /  0mm
13:13 59.3 °F /  15.2 °C 40.7 °F /  4.8 °C 30.01in /  1016.1hPa SW 12.0mph /  19.3km/h 18.0mph /  29km/h 50% 0.00in /  0mm
13:18 60.1 °F /  15.6 °C 41.4 °F /  5.2 °C 30.01in /  1016.1hPa SW 14.0mph /  22.5km/h 17.0mph /  27.4km/h 50% 0.00in /  0mm
13:23 60.1 °F /  15.6 °C 41.9 °F /  5.5 °C 30.00in /  1015.8hPa WSW 17.0mph /  27.4km/h 19.0mph /  30.6km/h 51% 0.00in /  0mm
13:28 59.8 °F /  15.4 °C 39.5 °F /  4.2 °C 30.00in /  1015.8hPa SW 13.0mph /  20.9km/h 18.0mph /  29km/h 47% 0.00in /  0mm
13:33 60.0 °F /  15.6 °C 40.3 °F /  4.6 °C 30.00in /  1015.8hPa WSW 17.0mph /  27.4km/h 17.0mph /  27.4km/h 48% 0.00in /  0mm
13:38 60.2 °F /  15.7 °C 39.4 °F /  4.1 °C 30.00in /  1015.8hPa West 12.0mph /  19.3km/h 19.0mph /  30.6km/h 46% 0.00in /  0mm
13:43 60.3 °F /  15.7 °C 39.5 °F /  4.2 °C 30.00in /  1015.8hPa WSW 13.0mph /  20.9km/h 15.0mph /  24.1km/h 46% 0.00in /  0mm
13:48 60.5 °F /  15.8 °C 40.2 °F /  4.6 °C 30.00in /  1015.8hPa SSW 12.0mph /  19.3km/h 16.0mph /  25.7km/h 47% 0.00in /  0mm
13:53 60.7 °F /  15.9 °C 39.8 °F /  4.3 °C 29.99in /  1015.5hPa SW 9.0mph /  14.5km/h 18.0mph /  29km/h 46% 0.00in /  0mm
13:58 60.5 °F /  15.8 °C 39.1 °F /  3.9 °C 29.99in /  1015.5hPa SW 14.0mph /  22.5km/h 16.0mph /  25.7km/h 45% 0.00in /  0mm
14:03 60.5 °F /  15.8 °C 39.6 °F /  4.2 °C 29.98in /  1015.1hPa SW 18.0mph /  29km/h 18.0mph /  29km/h 46% 0.00in /  0mm
14:08 60.8 °F /  16 °C 39.3 °F /  4.1 °C 29.99in /  1015.5hPa SW 11.0mph /  17.7km/h 16.0mph /  25.7km/h 45% 0.00in /  0mm
14:13 60.9 °F /  16.1 °C 39.4 °F /  4.1 °C 29.98in /  1015.1hPa WSW 13.0mph /  20.9km/h 20.0mph /  32.2km/h 45% 0.00in /  0mm
14:18 60.9 °F /  16.1 °C 37.7 °F /  3.2 °C 29.98in /  1015.1hPa WSW 16.0mph /  25.7km/h 17.0mph /  27.4km/h 42% 0.00in /  0mm
14:23 60.7 °F /  15.9 °C 36.3 °F /  2.4 °C 29.98in /  1015.1hPa SW 16.0mph /  25.7km/h 20.0mph /  32.2km/h 40% 0.00in /  0mm
14:28 60.8 °F /  16 °C 36.3 °F /  2.4 °C 29.98in /  1015.1hPa WSW 14.0mph /  22.5km/h 16.0mph /  25.7km/h 40% 0.00in /  0mm
14:33 61.1 °F /  16.2 °C 39.6 °F /  4.2 °C 29.98in /  1015.1hPa SW 9.0mph /  14.5km/h 13.0mph /  20.9km/h 45% 0.00in /  0mm
14:38 61.4 °F /  16.3 °C 39.9 °F /  4.4 °C 29.98in /  1015.1hPa WSW 9.0mph /  14.5km/h 14.0mph /  22.5km/h 45% 0.00in /  0mm
14:43 61.1 °F /  16.2 °C 39.0 °F /  3.9 °C 29.98in /  1015.1hPa SW 11.0mph /  17.7km/h 19.0mph /  30.6km/h 44% 0.00in /  0mm
14:48 60.9 °F /  16.1 °C 36.4 °F /  2.4 °C 29.98in /  1015.1hPa West 12.0mph /  19.3km/h 21.0mph /  33.8km/h 40% 0.00in /  0mm
14:53 60.8 °F /  16 °C 37.6 °F /  3.1 °C 29.98in /  1015.1hPa SW 8.0mph /  12.9km/h 18.0mph /  29km/h 42% 0.00in /  0mm
14:58 61.3 °F /  16.3 °C 36.2 °F /  2.3 °C 29.98in /  1015.1hPa SW 18.0mph /  29km/h 21.0mph /  33.8km/h 39% 0.00in /  0mm
15:03 61.3 °F /  16.3 °C 36.8 °F /  2.7 °C 29.98in /  1015.1hPa West 11.0mph /  17.7km/h 17.0mph /  27.4km/h 40% 0.00in /  0mm
15:08 61.2 °F /  16.2 °C 38.5 °F /  3.6 °C 29.98in /  1015.1hPa WSW 8.0mph /  12.9km/h 16.0mph /  25.7km/h 43% 0.00in /  0mm
15:13 61.4 °F /  16.3 °C 36.9 °F /  2.7 °C 29.97in /  1014.8hPa West 14.0mph /  22.5km/h 18.0mph /  29km/h 40% 0.00in /  0mm
15:18 62.0 °F /  16.7 °C 37.4 °F /  3 °C 29.97in /  1014.8hPa SW 7.0mph /  11.3km/h 16.0mph /  25.7km/h 40% 0.00in /  0mm
15:23 61.7 °F /  16.5 °C 35.2 °F /  1.8 °C 29.97in /  1014.8hPa WSW 12.0mph /  19.3km/h 17.0mph /  27.4km/h 37% 0.00in /  0mm
15:28 61.7 °F /  16.5 °C 35.9 °F /  2.2 °C 29.97in /  1014.8hPa SSW 10.0mph /  16.1km/h 14.0mph /  22.5km/h 38% 0.00in /  0mm
15:33 61.5 °F /  16.4 °C 37.6 °F /  3.1 °C 29.97in /  1014.8hPa SW 10.0mph /  16.1km/h 20.0mph /  32.2km/h 41% 0.00in /  0mm
15:38 61.7 °F /  16.5 °C 36.5 °F /  2.5 °C 29.96in /  1014.4hPa SW 14.0mph /  22.5km/h 16.0mph /  25.7km/h 39% 0.00in /  0mm
15:43 61.6 °F /  16.4 °C 35.8 °F /  2.1 °C 29.97in /  1014.8hPa SW 17.0mph /  27.4km/h 19.0mph /  30.6km/h 38% 0.00in /  0mm
15:48 61.4 °F /  16.3 °C 36.2 °F /  2.3 °C 29.97in /  1014.8hPa West 12.0mph /  19.3km/h 16.0mph /  25.7km/h 39% 0.00in /  0mm
15:54 61.5 °F /  16.4 °C 37.0 °F /  2.8 °C 29.96in /  1014.4hPa SW 12.0mph /  19.3km/h 16.0mph /  25.7km/h 40% 0.00in /  0mm
15:59 61.8 °F /  16.6 °C 36.6 °F /  2.6 °C 29.97in /  1014.8hPa WSW 12.0mph /  19.3km/h 16.0mph /  25.7km/h 39% 0.00in /  0mm
16:04 61.7 °F /  16.5 °C 35.9 °F /  2.2 °C 29.97in /  1014.8hPa SSW 7.0mph /  11.3km/h 18.0mph /  29km/h 38% 0.00in /  0mm
16:09 61.5 °F /  16.4 °C 35.0 °F /  1.7 °C 29.96in /  1014.4hPa WSW 14.0mph /  22.5km/h 18.0mph /  29km/h 37% 0.00in /  0mm
16:14 61.7 °F /  16.5 °C 36.5 °F /  2.5 °C 29.96in /  1014.4hPa SW 6.0mph /  9.7km/h 17.0mph /  27.4km/h 39% 0.00in /  0mm
16:19 62.0 °F /  16.7 °C 36.8 °F /  2.7 °C 29.96in /  1014.4hPa WSW 12.0mph /  19.3km/h 16.0mph /  25.7km/h 39% 0.00in /  0mm
16:24 61.9 °F /  16.6 °C 34.7 °F /  1.5 °C 29.96in /  1014.4hPa SW 15.0mph /  24.1km/h 18.0mph /  29km/h 36% 0.00in /  0mm
16:29 61.9 °F /  16.6 °C 34.7 °F /  1.5 °C 29.97in /  1014.8hPa West 7.0mph /  11.3km/h 15.0mph /  24.1km/h 36% 0.00in /  0mm
16:34 61.7 °F /  16.5 °C 32.3 °F /  0.2 °C 29.97in /  1014.8hPa SW 14.0mph /  22.5km/h 20.0mph /  32.2km/h 33% 0.00in /  0mm
16:39 61.7 °F /  16.5 °C 30.0 °F /  -1.1 °C 29.97in /  1014.8hPa West 8.0mph /  12.9km/h 19.0mph /  30.6km/h 30% 0.00in /  0mm
16:44 61.7 °F /  16.5 °C 29.1 °F /  -1.6 °C 29.97in /  1014.8hPa WSW 14.0mph /  22.5km/h 18.0mph /  29km/h 29% 0.00in /  0mm
16:49 62.0 °F /  16.7 °C 29.4 °F /  -1.4 °C 29.97in /  1014.8hPa WSW 16.0mph /  25.7km/h 16.0mph /  25.7km/h 29% 0.00in /  0mm
16:54 62.0 °F /  16.7 °C 32.6 °F /  0.3 °C 29.97in /  1014.8hPa WSW 11.0mph /  17.7km/h 14.0mph /  22.5km/h 33% 0.00in /  0mm
16:59 62.0 °F /  16.7 °C 34.8 °F /  1.6 °C 29.96in /  1014.4hPa WSW 6.0mph /  9.7km/h 13.0mph /  20.9km/h 36% 0.00in /  0mm
17:04 62.0 °F /  16.7 °C 34.1 °F /  1.2 °C 29.96in /  1014.4hPa SW 13.0mph /  20.9km/h 13.0mph /  20.9km/h 35% 0.00in /  0mm
17:09 62.1 °F /  16.7 °C 32.7 °F /  0.4 °C 29.96in /  1014.4hPa WSW 12.0mph /  19.3km/h 16.0mph /  25.7km/h 33% 0.00in /  0mm
17:14 62.0 °F /  16.7 °C 31.8 °F /  -0.1 °C 29.96in /  1014.4hPa SSW 8.0mph /  12.9km/h 13.0mph /  20.9km/h 32% 0.00in /  0mm
17:19 61.9 °F /  16.6 °C 30.1 °F /  -1.1 °C 29.96in /  1014.4hPa WSW 10.0mph /  16.1km/h 14.0mph /  22.5km/h 30% 0.00in /  0mm
17:24 61.7 °F /  16.5 °C 30.0 °F /  -1.1 °C 29.96in /  1014.4hPa WSW 10.0mph /  16.1km/h 17.0mph /  27.4km/h 30% 0.00in /  0mm
17:29 61.6 °F /  16.4 °C 31.5 °F /  -0.3 °C 29.96in /  1014.4hPa WSW 9.0mph /  14.5km/h 10.0mph /  16.1km/h 32% 0.00in /  0mm
17:34 61.6 °F /  16.4 °C 29.1 °F /  -1.6 °C 29.96in /  1014.4hPa WSW 8.0mph /  12.9km/h 11.0mph /  17.7km/h 29% 0.00in /  0mm
17:39 61.3 °F /  16.3 °C 25.2 °F /  -3.8 °C 29.96in /  1014.4hPa WSW 11.0mph /  17.7km/h 21.0mph /  33.8km/h 25% 0.00in /  0mm
17:44 61.2 °F /  16.2 °C 27.0 °F /  -2.8 °C 29.96in /  1014.4hPa WSW 8.0mph /  12.9km/h 15.0mph /  24.1km/h 27% 0.00in /  0mm
17:49 61.0 °F /  16.1 °C 26.8 °F /  -2.9 °C 29.95in /  1014.1hPa SW 11.0mph /  17.7km/h 15.0mph /  24.1km/h 27% 0.00in /  0mm
17:54 60.8 °F /  16 °C 29.2 °F /  -1.6 °C 29.95in /  1014.1hPa SSW 9.0mph /  14.5km/h 11.0mph /  17.7km/h 30% 0.00in /  0mm
17:59 60.7 °F /  15.9 °C 29.9 °F /  -1.2 °C 29.95in /  1014.1hPa SSW 10.0mph /  16.1km/h 15.0mph /  24.1km/h 31% 0.00in /  0mm
18:04 60.5 °F /  15.8 °C 30.5 °F /  -0.8 °C 29.95in /  1014.1hPa SW 5.0mph /  8km/h 11.0mph /  17.7km/h 32% 0.00in /  0mm
18:09 60.2 °F /  15.7 °C 30.2 °F /  -1 °C 29.95in /  1014.1hPa SW 12.0mph /  19.3km/h 12.0mph /  19.3km/h 32% 0.00in /  0mm
18:14 59.9 °F /  15.5 °C 30.0 °F /  -1.1 °C 29.96in /  1014.4hPa WSW 4.0mph /  6.4km/h 8.0mph /  12.9km/h 32% 0.00in /  0mm
18:19 59.6 °F /  15.3 °C 29.0 °F /  -1.7 °C 29.96in /  1014.4hPa WSW 4.0mph /  6.4km/h 9.0mph /  14.5km/h 31% 0.00in /  0mm
18:24 59.1 °F /  15.1 °C 28.5 °F /  -1.9 °C 29.97in /  1014.8hPa SW 10.0mph /  16.1km/h 12.0mph /  19.3km/h 31% 0.00in /  0mm
18:29 58.7 °F /  14.8 °C 28.9 °F /  -1.7 °C 29.97in /  1014.8hPa SSW 6.0mph /  9.7km/h 12.0mph /  19.3km/h 32% 0.00in /  0mm
18:34 58.1 °F /  14.5 °C 29.2 °F /  -1.6 °C 29.96in /  1014.4hPa WSW 4.0mph /  6.4km/h 8.0mph /  12.9km/h 33% 0.00in /  0mm
18:40 57.8 °F /  14.3 °C 28.9 °F /  -1.7 °C 29.96in /  1014.4hPa SW 5.0mph /  8km/h 8.0mph /  12.9km/h 33% 0.00in /  0mm
18:45 57.2 °F /  14 °C 29.8 °F /  -1.2 °C 29.96in /  1014.4hPa SW 4.0mph /  6.4km/h 6.0mph /  9.7km/h 35% 0.00in /  0mm
18:50 56.4 °F /  13.6 °C 29.8 °F /  -1.2 °C 29.96in /  1014.4hPa SW 3.0mph /  4.8km/h 7.0mph /  11.3km/h 36% 0.00in /  0mm
18:55 55.9 °F /  13.3 °C 30.0 °F /  -1.1 °C 29.96in /  1014.4hPa SW 4.0mph /  6.4km/h 6.0mph /  9.7km/h 37% 0.00in /  0mm
19:00 55.3 °F /  12.9 °C 30.1 °F /  -1.1 °C 29.97in /  1014.8hPa SW 3.0mph /  4.8km/h 4.0mph /  6.4km/h 38% 0.00in /  0mm
19:05 55.0 °F /  12.8 °C 29.9 °F /  -1.2 °C 29.97in /  1014.8hPa SW 3.0mph /  4.8km/h 5.0mph /  8km/h 38% 0.00in /  0mm
19:10 54.6 °F /  12.6 °C 30.2 °F /  -1 °C 29.97in /  1014.8hPa SW 3.0mph /  4.8km/h 5.0mph /  8km/h 39% 0.00in /  0mm
19:15 54.4 °F /  12.4 °C 30.0 °F /  -1.1 °C 29.98in /  1015.1hPa SW 3.0mph /  4.8km/h 4.0mph /  6.4km/h 39% 0.00in /  0mm
19:20 54.2 °F /  12.3 °C 29.8 °F /  -1.2 °C 29.98in /  1015.1hPa SW 2.0mph /  3.2km/h 4.0mph /  6.4km/h 39% 0.00in /  0mm
19:25 54.2 °F /  12.3 °C 29.2 °F /  -1.6 °C 29.98in /  1015.1hPa SW 2.0mph /  3.2km/h 3.0mph /  4.8km/h 38% 0.00in /  0mm
19:30 54.3 °F /  12.4 °C 29.2 °F /  -1.6 °C 29.98in /  1015.1hPa SSW 2.0mph /  3.2km/h 3.0mph /  4.8km/h 38% 0.00in /  0mm
19:35 54.0 °F /  12.2 °C 29.0 °F /  -1.7 °C 29.97in /  1014.8hPa South 3.0mph /  4.8km/h 3.0mph /  4.8km/h 38% 0.00in /  0mm
19:40 54.1 °F /  12.3 °C 29.1 °F /  -1.6 °C 29.97in /  1014.8hPa South 3.0mph /  4.8km/h 3.0mph /  4.8km/h 38% 0.00in /  0mm
19:45 53.9 °F /  12.2 °C 28.9 °F /  -1.7 °C 29.98in /  1015.1hPa SSW 1.0mph /  1.6km/h 4.0mph /  6.4km/h 38% 0.00in /  0mm
19:50 53.4 °F /  11.9 °C 28.5 °F /  -1.9 °C 29.98in /  1015.1hPa SW 3.0mph /  4.8km/h 3.0mph /  4.8km/h 38% 0.00in /  0mm
19:55 53.1 °F /  11.7 °C 28.2 °F /  -2.1 °C 29.98in /  1015.1hPa SW 3.0mph /  4.8km/h 4.0mph /  6.4km/h 38% 0.00in /  0mm
20:00 52.8 °F /  11.6 °C 27.9 °F /  -2.3 °C 29.98in /  1015.1hPa South 2.0mph /  3.2km/h 4.0mph /  6.4km/h 38% 0.00in /  0mm
20:05 52.9 °F /  11.6 °C 28.0 °F /  -2.2 °C 29.97in /  1014.8hPa SSE 3.0mph /  4.8km/h 3.0mph /  4.8km/h 38% 0.00in /  0mm
20:10 52.8 °F /  11.6 °C 27.9 °F /  -2.3 °C 29.98in /  1015.1hPa South 1.0mph /  1.6km/h 4.0mph /  6.4km/h 38% 0.00in /  0mm
20:15 52.8 °F /  11.6 °C 28.5 °F /  -1.9 °C 29.98in /  1015.1hPa SW 5.0mph /  8km/h 6.0mph /  9.7km/h 39% 0.00in /  0mm
20:20 52.5 °F /  11.4 °C 28.3 °F /  -2.1 °C 29.98in /  1015.1hPa SW 3.0mph /  4.8km/h 5.0mph /  8km/h 39% 0.00in /  0mm
20:25 52.4 °F /  11.3 °C 28.2 °F /  -2.1 °C 29.98in /  1015.1hPa SW 4.0mph /  6.4km/h 5.0mph /  8km/h 39% 0.00in /  0mm
20:30 52.1 °F /  11.2 °C 28.5 °F /  -1.9 °C 29.99in /  1015.5hPa SW 3.0mph /  4.8km/h 4.0mph /  6.4km/h 40% 0.00in /  0mm
20:35 51.9 °F /  11.1 °C 28.4 °F /  -2 °C 29.98in /  1015.1hPa SSW 2.0mph /  3.2km/h 3.0mph /  4.8km/h 40% 0.00in /  0mm
20:40 51.9 °F /  11.1 °C 28.4 °F /  -2 °C 29.99in /  1015.5hPa SSW 2.0mph /  3.2km/h 4.0mph /  6.4km/h 40% 0.00in /  0mm
20:45 51.7 °F /  10.9 °C 28.2 °F /  -2.1 °C 29.99in /  1015.5hPa SSW 3.0mph /  4.8km/h 4.0mph /  6.4km/h 40% 0.00in /  0mm
20:50 51.3 °F /  10.7 °C 27.8 °F /  -2.3 °C 29.99in /  1015.5hPa SW 4.0mph /  6.4km/h 4.0mph /  6.4km/h 40% 0.00in /  0mm
20:55 51.1 °F /  10.6 °C 27.6 °F /  -2.4 °C 29.98in /  1015.1hPa SW 4.0mph /  6.4km/h 5.0mph /  8km/h 40% 0.00in /  0mm
21:00 51.6 °F /  10.9 °C 27.5 °F /  -2.5 °C 29.98in /  1015.1hPa SSW 2.0mph /  3.2km/h 5.0mph /  8km/h 39% 0.00in /  0mm
21:05 52.0 °F /  11.1 °C 27.8 °F /  -2.3 °C 29.99in /  1015.5hPa South 3.0mph /  4.8km/h 6.0mph /  9.7km/h 39% 0.00in /  0mm
21:11 51.5 °F /  10.8 °C 28.0 °F /  -2.2 °C 29.98in /  1015.1hPa SW 4.0mph /  6.4km/h 5.0mph /  8km/h 40% 0.00in /  0mm
21:16 51.0 °F /  10.6 °C 27.5 °F /  -2.5 °C 29.99in /  1015.5hPa SW 3.0mph /  4.8km/h 4.0mph /  6.4km/h 40% 0.00in /  0mm
21:21 50.9 °F /  10.5 °C 27.5 °F /  -2.5 °C 29.98in /  1015.1hPa SSW 2.0mph /  3.2km/h 5.0mph /  8km/h 40% 0.00in /  0mm
21:26 50.8 °F /  10.4 °C 27.4 °F /  -2.6 °C 29.99in /  1015.5hPa SSW 3.0mph /  4.8km/h 3.0mph /  4.8km/h 40% 0.00in /  0mm
21:31 50.7 °F /  10.4 °C 27.3 °F /  -2.6 °C 29.99in /  1015.5hPa SSW 2.0mph /  3.2km/h 4.0mph /  6.4km/h 40% 0.00in /  0mm
21:36 50.6 °F /  10.3 °C 26.6 °F /  -3 °C 29.99in /  1015.5hPa WSW 3.0mph /  4.8km/h 3.0mph /  4.8km/h 39% 0.00in /  0mm
21:41 50.4 °F /  10.2 °C 27.0 °F /  -2.8 °C 29.99in /  1015.5hPa SSW 2.0mph /  3.2km/h 3.0mph /  4.8km/h 40% 0.00in /  0mm
21:46 50.3 °F /  10.2 °C 26.9 °F /  -2.8 °C 29.99in /  1015.5hPa SSW 2.0mph /  3.2km/h 3.0mph /  4.8km/h 40% 0.00in /  0mm
21:51 50.4 °F /  10.2 °C 27.0 °F /  -2.8 °C 29.99in /  1015.5hPa SSW 2.0mph /  3.2km/h 4.0mph /  6.4km/h 40% 0.00in /  0mm
21:56 50.3 °F /  10.2 °C 26.9 °F /  -2.8 °C 29.99in /  1015.5hPa South 3.0mph /  4.8km/h 5.0mph /  8km/h 40% 0.00in /  0mm
22:01 50.2 °F /  10.1 °C 27.4 °F /  -2.6 °C 29.99in /  1015.5hPa SSW 3.0mph /  4.8km/h 5.0mph /  8km/h 41% 0.00in /  0mm
22:06 50.3 °F /  10.2 °C 27.5 °F /  -2.5 °C 29.99in /  1015.5hPa SSW 4.0mph /  6.4km/h 5.0mph /  8km/h 41% 0.00in /  0mm
22:11 50.5 °F /  10.3 °C 27.1 °F /  -2.7 °C 29.99in /  1015.5hPa SSW 2.0mph /  3.2km/h 5.0mph /  8km/h 40% 0.00in /  0mm
22:16 50.7 °F /  10.4 °C 26.7 °F /  -2.9 °C 29.99in /  1015.5hPa South 2.0mph /  3.2km/h 5.0mph /  8km/h 39% 0.00in /  0mm
22:21 50.6 °F /  10.3 °C 26.6 °F /  -3 °C 29.99in /  1015.5hPa SSE 3.0mph /  4.8km/h 4.0mph /  6.4km/h 39% 0.00in /  0mm
22:26 50.3 °F /  10.2 °C 26.9 °F /  -2.8 °C 29.99in /  1015.5hPa SSW 3.0mph /  4.8km/h 4.0mph /  6.4km/h 40% 0.00in /  0mm
22:31 49.8 °F /  9.9 °C 27.1 °F /  -2.7 °C 29.99in /  1015.5hPa SSW 3.0mph /  4.8km/h 4.0mph /  6.4km/h 41% 0.00in /  0mm
22:36 49.5 °F /  9.7 °C 27.4 °F /  -2.6 °C 29.99in /  1015.5hPa South 3.0mph /  4.8km/h 5.0mph /  8km/h 42% 0.00in /  0mm
22:41 49.6 °F /  9.8 °C 27.5 °F /  -2.5 °C 29.99in /  1015.5hPa SSW 2.0mph /  3.2km/h 3.0mph /  4.8km/h 42% 0.00in /  0mm
22:46 49.5 °F /  9.7 °C 27.4 °F /  -2.6 °C 29.99in /  1015.5hPa SW 2.0mph /  3.2km/h 3.0mph /  4.8km/h 42% 0.00in /  0mm
22:51 49.2 °F /  9.6 °C 27.1 °F /  -2.7 °C 29.99in /  1015.5hPa SSW 3.0mph /  4.8km/h 3.0mph /  4.8km/h 42% 0.00in /  0mm
22:56 49.0 °F /  9.4 °C 27.5 °F /  -2.5 °C 29.99in /  1015.5hPa SSW 2.0mph /  3.2km/h 4.0mph /  6.4km/h 43% 0.00in /  0mm
23:01 49.1 °F /  9.5 °C 27.0 °F /  -2.8 °C 29.99in /  1015.5hPa SW 2.0mph /  3.2km/h 4.0mph /  6.4km/h 42% 0.00in /  0mm
23:06 49.0 °F /  9.4 °C 27.5 °F /  -2.5 °C 29.99in /  1015.5hPa South 2.0mph /  3.2km/h 3.0mph /  4.8km/h 43% 0.00in /  0mm
23:11 48.9 °F /  9.4 °C 27.4 °F /  -2.6 °C 29.98in /  1015.1hPa South 2.0mph /  3.2km/h 3.0mph /  4.8km/h 43% 0.00in /  0mm
23:16 48.8 °F /  9.3 °C 27.3 °F /  -2.6 °C 29.98in /  1015.1hPa SW 2.0mph /  3.2km/h 2.0mph /  3.2km/h 43% 0.00in /  0mm
23:21 48.9 °F /  9.4 °C 27.4 °F /  -2.6 °C 29.98in /  1015.1hPa WSW 1.0mph /  1.6km/h 2.0mph /  3.2km/h 43% 0.00in /  0mm
23:26 48.7 °F /  9.3 °C 27.2 °F /  -2.7 °C 29.98in /  1015.1hPa West 1.0mph /  1.6km/h 2.0mph /  3.2km/h 43% 0.00in /  0mm
23:31 48.5 °F /  9.2 °C 27.0 °F /  -2.8 °C 29.98in /  1015.1hPa SW 1.0mph /  1.6km/h 2.0mph /  3.2km/h 43% 0.00in /  0mm
23:36 48.8 °F /  9.3 °C 26.7 °F /  -2.9 °C 29.98in /  1015.1hPa SW 1.0mph /  1.6km/h 1.0mph /  1.6km/h 42% 0.00in /  0mm
23:41 48.8 °F /  9.3 °C 26.7 °F /  -2.9 °C 29.98in /  1015.1hPa SW 1.0mph /  1.6km/h 1.0mph /  1.6km/h 42% 0.00in /  0mm
23:46 48.4 °F /  9.1 °C 26.4 °F /  -3.1 °C 29.98in /  1015.1hPa Calm     42% 0.00in /  0mm
23:51 47.9 °F /  8.8 °C 26.5 °F /  -3.1 °C 29.97in /  1014.8hPa Calm   1.0mph /  1.6km/h 43% 0.00in /  0mm
23:56 47.8 °F /  8.8 °C 26.4 °F /  -3.1 °C 29.97in /  1014.8hPa SSW 1.0mph /  1.6km/h 1.0mph /  1.6km/h 43% 0.00in /  0mm
Compliments of Weather Underground